EBBL

Kleine Brogel Air Base Airport

Kleine Brogel, Belgium
METAR EBBL 191955Z AUTO 22003KT //// OVC037/// 20/16 Q1024 BLU
Observed Flight Rules
Jun-19 @ 19:55 UTC (24 minutes ago)
Wind Clouds
220° at 3 knots
  • Overcast at 3,700' AGL
Temperatures Readings
Current 20°C / 68°F
Dewpoint 16°C / 61°F
Humidity 78%
Altimeter 30.24" Hg
Pressure 1024 hPa
Elevation 64
METAR EBBL 191955Z AUTO 22003KT //// OVC037/// 20/16 Q1024 BLU
Observed Flight Rules
Jun-19 @ 19:55 UTC
(24 minutes ago)
Wind
220° at 3 knots
Clouds
  • Overcast at 3,700' AGL
Temperature Dewpoint
20°C / 68°F 16°C / 61°F
Humidity Altimeter Pressure
78% 30.24" Hg 1024 hPa